createdAt,value
2022-09-23T00:03:54.860Z,99206.36
2022-09-23T00:08:57.001Z,99203.77
2022-09-23T00:14:00.280Z,99198.63
2022-09-23T00:19:09.621Z,99191.37
2022-09-23T00:24:11.642Z,99187.21
2022-09-23T00:29:13.724Z,99188.23
2022-09-23T00:34:15.669Z,99183.54
2022-09-23T00:39:17.585Z,99176.35
2022-09-23T00:44:45.570Z,99171.73
2022-09-23T00:49:50.171Z,99171.59
2022-09-23T00:54:55.181Z,99170.02
2022-09-23T00:59:58.002Z,99172.16
2022-09-23T01:05:20.732Z,99172.25
2022-09-23T01:10:56.477Z,99174.84
2022-09-23T01:16:39.740Z,99167.38
2022-09-23T01:22:21.927Z,99170.98
2022-09-23T01:27:36.568Z,99164.92
2022-09-23T01:32:47.295Z,99164.62
2022-09-23T01:38:33.750Z,99156.80
2022-09-23T01:43:53.205Z,99158.10
2022-09-23T01:49:39.042Z,99156.89
2022-09-23T01:54:57.394Z,99152.58
2022-09-23T02:00:11.604Z,99152.91
2022-09-23T02:05:20.322Z,99146.17
2022-09-23T02:10:36.116Z,99143.84
2022-09-23T02:15:45.863Z,99145.80
2022-09-23T02:20:50.991Z,99144.27
2022-09-23T02:26:08.901Z,99142.48
2022-09-23T02:31:42.110Z,99142.95
2022-09-23T02:37:16.636Z,99139.55
2022-09-23T02:42:23.341Z,99134.63
2022-09-23T02:47:31.471Z,99142.65
2022-09-23T02:52:33.634Z,99147.60
2022-09-23T02:57:35.785Z,99148.80
2022-09-23T03:02:51.817Z,99144.81
2022-09-23T03:08:25.786Z,99141.15
2022-09-23T03:13:58.640Z,99142.48
2022-09-23T03:19:40.653Z,99144.13
2022-09-23T03:25:02.914Z,99138.23
2022-09-23T03:30:07.265Z,99135.70
2022-09-23T03:35:09.524Z,99131.41
2022-09-23T03:40:17.483Z,99131.04
2022-09-23T03:45:26.354Z,99129.64
2022-09-23T03:50:28.791Z,99125.70
2022-09-23T03:55:46.642Z,99126.83
2022-09-23T04:00:57.783Z,99125.27
2022-09-23T04:05:59.634Z,99123.84
2022-09-23T04:11:04.352Z,99124.79
2022-09-23T04:16:06.465Z,99125.27
2022-09-23T04:21:08.285Z,99127.90
2022-09-23T04:26:16.647Z,99128.56
2022-09-23T04:31:29.306Z,99131.43
2022-09-23T04:36:31.478Z,99127.44
2022-09-23T04:41:39.703Z,99127.45
2022-09-23T04:47:01.141Z,99126.94
2022-09-23T04:52:05.460Z,99128.77
2022-09-23T04:57:07.240Z,99129.82
2022-09-23T05:02:09.340Z,99127.39
2022-09-23T05:07:21.363Z,99127.31
2022-09-23T05:12:24.257Z,99134.83
2022-09-23T05:17:26.003Z,99139.13
2022-09-23T05:22:30.051Z,99145.87
2022-09-23T05:27:32.017Z,99150.86
2022-09-23T05:32:33.863Z,99153.23
2022-09-23T05:37:35.624Z,99151.85
2022-09-23T05:42:37.405Z,99151.64
2022-09-23T05:47:39.949Z,99157.53
2022-09-23T05:52:41.708Z,99156.16
2022-09-23T05:57:43.522Z,99162.52
2022-09-23T06:02:47.519Z,99160.66
2022-09-23T06:07:49.340Z,99160.35
2022-09-23T06:12:51.180Z,99161.23
2022-09-23T06:17:59.676Z,99162.19
2022-09-23T06:23:11.284Z,99168.10
2022-09-23T06:28:14.555Z,99168.98
2022-09-23T06:33:18.724Z,99170.30
2022-09-23T06:47:01.613Z,99168.63
2022-09-23T06:52:03.461Z,99170.23
2022-09-23T06:57:05.371Z,99175.80
2022-09-23T07:02:07.618Z,99175.37
2022-09-23T07:07:11.534Z,99177.43
2022-09-23T07:12:14.002Z,99174.04
2022-09-23T07:17:15.804Z,99176.77
2022-09-23T07:22:18.658Z,99177.65
2022-09-23T07:27:20.425Z,99177.35
2022-09-23T07:32:23.067Z,99179.02
2022-09-23T07:37:24.884Z,99179.12
2022-09-23T07:42:26.628Z,99176.45
2022-09-23T07:47:28.374Z,99177.77
2022-09-23T07:52:30.208Z,99173.77
2022-09-23T07:57:32.975Z,99177.52
2022-09-23T08:02:54.978Z,99181.75
2022-09-23T08:07:56.954Z,99180.70
2022-09-23T08:13:01.065Z,99184.21
2022-09-23T08:18:02.955Z,99185.14
2022-09-23T08:23:04.723Z,99180.89
2022-09-23T08:28:06.878Z,99178.39
2022-09-23T08:33:08.653Z,99180.02
2022-09-23T08:38:10.616Z,99171.29
2022-09-23T08:43:40.746Z,99171.63
2022-09-23T08:48:46.378Z,99166.85
2022-09-23T08:53:48.174Z,99166.81
2022-09-23T08:59:14.833Z,99169.06
2022-09-23T09:04:40.603Z,99160.67
2022-09-23T09:10:21.304Z,99158.29
2022-09-23T09:15:29.069Z,99160.16
2022-09-23T09:20:39.716Z,99156.17
2022-09-23T09:25:45.033Z,99155.00
2022-09-23T09:30:52.595Z,99151.51
2022-09-23T09:36:36.082Z,99148.30
2022-09-23T09:41:41.897Z,99140.95
2022-09-23T09:46:52.917Z,99127.27
2022-09-23T09:52:15.920Z,99116.62
2022-09-23T09:57:39.754Z,99111.40
2022-09-23T10:02:41.845Z,99107.83
2022-09-23T10:07:43.674Z,99097.84
2022-09-23T10:12:47.113Z,99097.69
2022-09-23T10:17:50.299Z,99095.27
2022-09-23T10:22:56.866Z,99092.14
2022-09-23T10:27:58.603Z,99087.40
2022-09-23T10:33:34.731Z,99096.23
2022-09-23T10:38:55.300Z,99093.29
2022-09-23T10:44:41.420Z,99096.40
2022-09-23T10:50:03.976Z,99091.23
2022-09-23T10:55:19.395Z,99091.13
2022-09-23T11:01:04.460Z,99085.55
2022-09-23T11:06:49.739Z,99083.21
2022-09-23T11:12:24.214Z,99070.92
2022-09-23T11:17:45.881Z,99063.35
2022-09-23T11:23:13.957Z,99057.98
2022-09-23T11:29:02.429Z,99055.52
2022-09-23T11:34:35.040Z,99051.74
2022-09-23T11:39:40.368Z,99045.71
2022-09-23T11:44:49.989Z,99046.05
2022-09-23T11:50:00.406Z,99050.86
2022-09-23T11:55:22.690Z,99042.40
2022-09-23T12:00:30.164Z,99034.25
2022-09-23T12:05:35.346Z,99031.78
2022-09-23T12:10:56.254Z,99029.92
2022-09-23T12:16:16.938Z,99025.73
2022-09-23T12:21:51.523Z,99023.72
2022-09-23T12:26:59.378Z,99012.45
2022-09-23T12:32:05.501Z,99005.44
2022-09-23T12:37:07.379Z,98999.35
2022-09-23T12:42:17.231Z,98995.02
2022-09-23T12:47:25.054Z,98991.98
2022-09-23T12:52:33.499Z,98985.16
2022-09-23T12:57:35.378Z,98981.36
2022-09-23T13:03:21.079Z,98975.88
2022-09-23T13:08:25.188Z,98972.94
2022-09-23T13:13:31.740Z,98973.89
2022-09-23T13:18:48.977Z,98966.21
2022-09-23T13:24:19.681Z,98953.20
2022-09-23T13:29:33.346Z,98946.84
2022-09-23T13:34:41.680Z,98941.68
2022-09-23T13:39:50.660Z,98932.80
2022-09-23T13:45:00.455Z,98930.56
2022-09-23T13:50:02.992Z,98933.44
2022-09-23T13:55:05.627Z,98925.86
2022-09-23T14:00:21.353Z,98919.30
2022-09-23T14:05:26.377Z,98919.91
2022-09-23T14:10:28.494Z,98917.47
2022-09-23T14:15:31.127Z,98912.64
2022-09-23T14:20:34.416Z,98912.08
2022-09-23T14:25:37.066Z,98914.58
2022-09-23T14:30:39.535Z,98914.20
2022-09-23T14:35:46.546Z,98915.30
2022-09-23T14:41:15.292Z,98906.08
2022-09-23T14:46:20.407Z,98904.17
2022-09-23T14:51:29.621Z,98899.89
2022-09-23T14:56:42.216Z,98891.48
2022-09-23T15:01:43.963Z,98892.07
2022-09-23T15:07:07.622Z,98883.20
2022-09-23T15:12:15.740Z,98883.27
2022-09-23T15:17:30.679Z,98885.70
2022-09-23T15:22:46.477Z,98885.15
2022-09-23T15:27:59.215Z,98887.60
2022-09-23T15:33:01.211Z,98881.20
2022-09-23T15:38:03.271Z,98877.41
2022-09-23T15:43:30.770Z,98870.48
2022-09-23T15:48:46.017Z,98863.94
2022-09-23T15:53:48.044Z,98862.16
2022-09-23T15:58:50.321Z,98864.16
2022-09-23T16:03:52.537Z,98862.33
2022-09-23T16:08:54.758Z,98866.59
2022-09-23T16:13:56.687Z,98860.14
2022-09-23T16:18:58.509Z,98857.55
2022-09-23T16:24:28.063Z,98855.39
2022-09-23T16:29:30.368Z,98858.58
2022-09-23T16:34:34.831Z,98859.46
2022-09-23T16:39:36.542Z,98858.68
2022-09-23T16:44:41.476Z,98852.48
2022-09-23T16:49:43.345Z,98853.99
2022-09-23T16:54:47.872Z,98851.98
2022-09-23T17:00:09.001Z,98852.81
2022-09-23T17:05:13.130Z,98848.09
2022-09-23T17:10:18.816Z,98847.81
2022-09-23T17:15:21.981Z,98849.95
2022-09-23T17:20:23.878Z,98852.30
2022-09-23T17:25:26.679Z,98853.95
2022-09-23T17:30:28.936Z,98858.33
2022-09-23T17:35:30.843Z,98859.70
2022-09-23T17:40:33.187Z,98859.65
2022-09-23T17:45:38.418Z,98859.26
2022-09-23T17:50:40.370Z,98866.80
2022-09-23T17:55:42.186Z,98871.41
2022-09-23T18:00:46.528Z,98872.98
2022-09-23T18:05:48.560Z,98874.75
2022-09-23T18:10:50.454Z,98876.14
2022-09-23T18:15:52.234Z,98872.48
2022-09-23T18:21:00.205Z,98871.73
2022-09-23T18:26:02.119Z,98874.58
2022-09-23T18:31:04.194Z,98877.66
2022-09-23T18:36:07.322Z,98879.63
2022-09-23T18:41:09.498Z,98876.35
2022-09-23T18:46:14.465Z,98873.86
2022-09-23T18:51:18.239Z,98870.11
2022-09-23T18:56:21.262Z,98869.14
2022-09-23T19:01:24.705Z,98871.17
2022-09-23T19:06:29.008Z,98875.49
2022-09-23T19:11:32.212Z,98875.38
2022-09-23T19:16:35.712Z,98872.85
2022-09-23T19:21:37.518Z,98875.11
2022-09-23T19:26:40.920Z,98871.58
2022-09-23T19:31:43.901Z,98866.92
2022-09-23T19:36:48.153Z,98859.67
2022-09-23T19:41:51.350Z,98858.20
2022-09-23T19:46:57.070Z,98861.84
2022-09-23T19:51:59.307Z,98860.64
2022-09-23T19:57:01.401Z,98863.13
2022-09-23T20:02:03.738Z,98853.98
2022-09-23T20:07:05.633Z,98848.85
2022-09-23T20:12:07.541Z,98848.30
2022-09-23T20:17:09.285Z,98842.77
2022-09-23T20:22:33.493Z,98841.02
2022-09-23T20:27:35.492Z,98840.94
2022-09-23T20:32:44.022Z,98837.20
2022-09-23T20:37:46.557Z,98836.16
2022-09-23T20:42:59.031Z,98837.01
2022-09-23T20:48:03.263Z,98836.87
2022-09-23T20:53:05.011Z,98840.91
2022-09-23T20:58:06.745Z,98833.52
2022-09-23T21:03:09.442Z,98825.77
2022-09-23T21:08:11.181Z,98829.73
2022-09-23T21:13:13.079Z,98832.20
2022-09-23T21:18:19.190Z,98833.16
2022-09-23T21:23:26.202Z,98829.11
2022-09-23T21:28:33.215Z,98829.44
2022-09-23T21:33:37.620Z,98828.54
2022-09-23T21:38:39.575Z,98833.73
2022-09-23T21:43:41.600Z,98840.75
2022-09-23T21:48:43.696Z,98843.91
2022-09-23T21:53:46.625Z,98847.38
2022-09-23T21:58:49.674Z,98847.04
2022-09-23T22:03:54.464Z,98838.40
2022-09-23T22:09:01.413Z,98839.71
2022-09-23T22:14:05.822Z,98841.66
2022-09-23T22:19:08.945Z,98847.48
2022-09-23T22:24:12.694Z,98841.46
2022-09-23T22:29:34.551Z,98831.20
2022-09-23T22:34:56.845Z,98828.48
2022-09-23T22:40:14.319Z,98830.11
2022-09-23T22:45:18.861Z,98829.56
2022-09-23T22:50:20.617Z,98830.22
2022-09-23T22:55:22.564Z,98828.00
2022-09-23T23:00:24.330Z,98824.52
2022-09-23T23:05:26.041Z,98825.16
2022-09-23T23:10:28.157Z,98824.50
2022-09-23T23:15:30.569Z,98828.63
2022-09-23T23:20:32.786Z,98822.95
2022-09-23T23:25:34.779Z,98817.73
2022-09-23T23:30:36.578Z,98811.58
2022-09-23T23:35:38.793Z,98813.17
2022-09-23T23:40:40.609Z,98813.02
2022-09-23T23:45:43.683Z,98806.38
2022-09-23T23:50:56.542Z,98804.05
2022-09-23T23:56:02.258Z,98800.84
